createdAt,value
2018-11-25T00:14:33.562Z,3.67
2018-11-25T00:29:38.885Z,3.65
2018-11-25T00:44:43.191Z,3.44
2018-11-25T00:59:48.327Z,3.45
2018-11-25T01:14:52.805Z,3.51
2018-11-25T01:29:56.958Z,3.56
2018-11-25T01:45:02.574Z,3.70
2018-11-25T02:00:11.729Z,3.72
2018-11-25T02:15:18.281Z,3.30
2018-11-25T02:30:23.612Z,3.17
2018-11-25T02:45:28.575Z,2.98
2018-11-25T03:00:32.843Z,2.77
2018-11-25T03:15:37.358Z,2.82
2018-11-25T03:30:43.337Z,3.05
2018-11-25T03:45:47.518Z,3.17
2018-11-25T04:00:52.834Z,2.76
2018-11-25T04:15:58.026Z,2.28
2018-11-25T04:31:19.126Z,2.19
2018-11-25T04:46:23.518Z,1.83
2018-11-25T05:01:27.717Z,1.99
2018-11-25T05:16:32.255Z,2.00
2018-11-25T05:31:37.257Z,2.28
2018-11-25T05:46:41.449Z,2.48
2018-11-25T06:01:46.117Z,2.60
2018-11-25T06:16:51.847Z,2.89
2018-11-25T06:31:57.647Z,3.58
2018-11-25T06:47:04.183Z,5.93
2018-11-25T07:02:09.020Z,5.54
2018-11-25T07:17:13.610Z,4.38
2018-11-25T07:32:18.108Z,5.04
2018-11-25T07:47:23.397Z,5.45
2018-11-25T08:02:27.865Z,5.26
2018-11-25T08:17:34.025Z,5.00
2018-11-25T08:32:38.592Z,5.42
2018-11-25T08:47:43.755Z,5.96
2018-11-25T09:02:48.846Z,6.22
2018-11-25T09:17:52.951Z,10.72
2018-11-25T09:32:57.307Z,14.61
2018-11-25T09:48:01.642Z,10.50
2018-11-25T10:03:09.301Z,8.34
2018-11-25T10:18:15.203Z,8.42
2018-11-25T10:33:19.913Z,8.46
2018-11-25T10:48:24.582Z,8.65
2018-11-25T11:03:34.040Z,9.42
2018-11-25T11:18:38.415Z,9.36
2018-11-25T11:33:43.156Z,9.65
2018-11-25T11:48:48.525Z,9.74
2018-11-25T12:03:53.123Z,9.65
2018-11-25T12:18:57.572Z,10.28
2018-11-25T12:34:02.767Z,11.07
2018-11-25T12:49:08.529Z,10.59
2018-11-25T13:04:14.223Z,10.57
2018-11-25T13:19:18.561Z,10.25
2018-11-25T13:34:24.355Z,10.23
2018-11-25T13:49:29.293Z,10.03
2018-11-25T14:04:34.264Z,10.02
2018-11-25T14:19:38.819Z,9.53
2018-11-25T14:34:43.216Z,8.99
2018-11-25T14:49:47.948Z,8.41
2018-11-25T15:04:52.560Z,8.29
2018-11-25T15:19:56.831Z,8.06
2018-11-25T15:35:01.171Z,8.16
2018-11-25T15:50:08.080Z,7.72
2018-11-25T16:05:14.841Z,7.61
2018-11-25T16:20:21.821Z,7.52
2018-11-25T16:35:27.631Z,7.42
2018-11-25T16:50:32.424Z,7.36
2018-11-25T17:05:44.241Z,7.17
2018-11-25T17:20:48.833Z,7.01
2018-11-25T17:35:53.118Z,7.00
2018-11-25T17:50:57.403Z,7.09
2018-11-25T18:06:01.992Z,7.17
2018-11-25T18:21:11.203Z,7.01
2018-11-25T18:36:16.347Z,6.99
2018-11-25T18:51:21.875Z,6.97
2018-11-25T19:06:30.702Z,6.49
2018-11-25T19:21:35.367Z,6.34
2018-11-25T19:36:40.900Z,6.26
2018-11-25T19:51:45.618Z,6.29
2018-11-25T20:06:50.865Z,6.15
2018-11-25T20:22:02.009Z,6.20
2018-11-25T20:37:06.629Z,6.06
2018-11-25T20:52:16.253Z,5.86
2018-11-25T21:07:22.548Z,5.76
2018-11-25T21:22:27.920Z,5.38
2018-11-25T21:37:33.335Z,5.33
2018-11-25T21:52:38.496Z,5.02
2018-11-25T22:07:42.721Z,4.88
2018-11-25T22:22:47.238Z,4.80
2018-11-25T22:37:54.777Z,4.63
2018-11-25T22:52:59.126Z,4.54
2018-11-25T23:08:04.664Z,4.45
2018-11-25T23:23:09.726Z,4.44
2018-11-25T23:38:15.138Z,4.39
2018-11-25T23:53:20.213Z,4.45
